Accueil
METAR-TAF:

METAR-TAF

Aéroports :

Aéroport de Southampton

Southampton, Angleterre

latitude: 50-54N, longitude: 001-24W, altitude: 9 m

Observation

Le bulletin a été fait il y a 22 minutes, à 06:20 UTC
Vent 2 kt de direction variable
Température 5°C
Humidité 87%
Pression 1032 hPa
Visibilité 10 km ou plus
Ciel couvert à une hauteur de 1500 ft

METAR: EGHI 240620Z VRB02KT 9999 OVC015 05/03 Q1032

Heure: 06:42 (06:42 UTC)

Prévision

Le bulletin a été fait il y a 19 minutes, à 06:23 UTC
Prévision valable du 24 à 06 UTC au 24 à 15 UTC
Vent 3 kt de est
Visibilité 10 km ou plus
Ciel couvert à une hauteur de 1600 ft
Temporairement
du 24 à 06 UTC au 24 à 15 UTC
Nuages fragmentés à une hauteur de 1300 ft
Probabilité 30% :
Temporairement
du 24 à 06 UTC au 24 à 15 UTC
Visibilité: 8000 m
Nuages fragmentés à une hauteur de 800 ft

TAF: EGHI 240623Z 2406/2415 09003KT 9999 OVC016 TEMPO 2406/2415 BKN013 PROB30 TEMPO 2406/2415 8000 BKN008

Observations et prévisions météorologiques de plus de 4000 aéroports (messages METAR et TAF).

Les stations disponibles sont représentées par des disques jaunes et rouges sur la carte.

Passer la souris dessus pour voir le nom de la station.

Cliquer dessus pour voir les observations et prévisions météorologiques.

Pour changer de carte: cliquez sur les boutons verts avec une croix noire pour zoomer, sur le bouton vert avec un tiret pour effectuer un zoom arrière, ou sur les flèches vertes pour les cartes adjacentes.


METAR-TAF: